createdAt,value
2023-05-09T00:02:08.532Z,13.74
2023-05-09T00:04:36.690Z,13.87
2023-05-09T00:07:04.634Z,14.02
2023-05-09T00:09:32.558Z,14.02
2023-05-09T00:12:02.613Z,13.94
2023-05-09T00:14:30.554Z,13.92
2023-05-09T00:16:59.309Z,13.88
2023-05-09T00:19:27.216Z,13.80
2023-05-09T00:21:55.628Z,13.73
2023-05-09T00:24:23.631Z,13.97
2023-05-09T00:26:51.528Z,13.92
2023-05-09T00:29:20.774Z,14.00
2023-05-09T00:31:48.759Z,13.75
2023-05-09T00:34:16.749Z,13.48
2023-05-09T00:36:44.626Z,13.40
2023-05-09T00:39:12.668Z,13.47
2023-05-09T00:41:40.634Z,13.25
2023-05-09T00:44:08.529Z,13.35
2023-05-09T00:46:37.853Z,13.31
2023-05-09T00:49:06.311Z,13.27
2023-05-09T00:51:34.488Z,13.26
2023-05-09T00:54:02.409Z,13.15
2023-05-09T00:56:30.454Z,13.22
2023-05-09T00:58:58.414Z,13.20
2023-05-09T01:01:26.353Z,13.16
2023-05-09T01:03:56.514Z,13.18
2023-05-09T01:06:28.729Z,13.16
2023-05-09T01:09:00.768Z,13.20
2023-05-09T01:11:33.709Z,13.14
2023-05-09T01:14:09.637Z,12.98
2023-05-09T01:16:41.805Z,12.84
2023-05-09T01:19:29.008Z,12.67
2023-05-09T01:21:58.701Z,12.57
2023-05-09T01:24:35.671Z,12.68
2023-05-09T01:27:30.263Z,12.61
2023-05-09T01:29:59.588Z,12.69
2023-05-09T01:32:29.863Z,12.79
2023-05-09T01:35:01.348Z,12.64
2023-05-09T01:37:32.915Z,12.51
2023-05-09T01:40:07.143Z,12.59
2023-05-09T01:42:40.712Z,12.33
2023-05-09T01:45:11.554Z,12.31
2023-05-09T01:47:41.297Z,12.51
2023-05-09T01:50:11.455Z,12.61
2023-05-09T01:52:40.576Z,12.72
2023-05-09T01:55:09.207Z,12.73
2023-05-09T01:57:37.782Z,12.54
2023-05-09T02:00:07.955Z,12.66
2023-05-09T02:02:37.725Z,12.95
2023-05-09T02:05:06.636Z,12.65
2023-05-09T02:07:34.840Z,12.88
2023-05-09T02:10:04.894Z,12.96
2023-05-09T02:12:32.865Z,13.08
2023-05-09T02:15:00.772Z,13.02
2023-05-09T02:17:30.868Z,12.92
2023-05-09T02:20:00.242Z,12.81
2023-05-09T02:22:28.527Z,12.96
2023-05-09T02:24:56.546Z,12.80
2023-05-09T02:27:24.851Z,12.69
2023-05-09T02:29:56.340Z,12.77
2023-05-09T02:32:25.786Z,12.46
2023-05-09T02:34:54.557Z,12.58
2023-05-09T02:37:24.338Z,12.39
2023-05-09T02:39:52.282Z,12.46
2023-05-09T02:42:22.697Z,12.66
2023-05-09T02:44:50.624Z,12.78
2023-05-09T02:47:18.594Z,12.79
2023-05-09T02:49:46.516Z,12.68
2023-05-09T02:52:14.473Z,12.39
2023-05-09T02:54:43.781Z,12.36
2023-05-09T02:57:11.852Z,12.18
2023-05-09T02:59:39.740Z,12.23
2023-05-09T03:02:07.652Z,12.26
2023-05-09T03:04:35.955Z,12.42
2023-05-09T03:07:03.873Z,12.47
2023-05-09T03:09:31.776Z,12.46
2023-05-09T03:12:01.099Z,12.42
2023-05-09T03:14:28.997Z,12.25
2023-05-09T03:16:56.904Z,12.39
2023-05-09T03:19:25.224Z,12.39
2023-05-09T03:21:53.232Z,12.36
2023-05-09T03:24:21.140Z,12.35
2023-05-09T03:26:49.015Z,12.19
2023-05-09T03:29:18.300Z,12.10
2023-05-09T03:31:46.253Z,12.07
2023-05-09T03:34:15.408Z,12.09
2023-05-09T03:36:43.707Z,12.03
2023-05-09T03:39:11.728Z,12.05
2023-05-09T03:41:39.672Z,12.06
2023-05-09T03:44:07.942Z,12.00
2023-05-09T03:46:37.318Z,12.05
2023-05-09T03:49:05.426Z,12.02
2023-05-09T03:51:33.652Z,12.13
2023-05-09T03:54:01.545Z,12.05
2023-05-09T03:56:29.451Z,12.13
2023-05-09T03:58:57.350Z,11.88
2023-05-09T04:01:25.278Z,12.03
2023-05-09T04:03:54.658Z,12.05
2023-05-09T04:06:22.640Z,12.02
2023-05-09T04:08:50.704Z,12.04
2023-05-09T04:11:18.618Z,12.03
2023-05-09T04:13:46.519Z,11.94
2023-05-09T04:16:14.544Z,11.85
2023-05-09T04:18:42.864Z,11.88
2023-05-09T04:21:12.177Z,11.86
2023-05-09T04:23:40.102Z,11.74
2023-05-09T04:26:09.691Z,11.77
2023-05-09T04:28:37.594Z,11.89
2023-05-09T04:31:06.601Z,11.71
2023-05-09T04:33:34.718Z,11.70
2023-05-09T04:36:03.030Z,11.80
2023-05-09T04:38:32.345Z,11.80
2023-05-09T04:41:00.232Z,11.87
2023-05-09T04:43:28.401Z,11.96
2023-05-09T04:45:56.368Z,11.95
2023-05-09T04:48:24.283Z,12.02
2023-05-09T04:50:52.212Z,11.91
2023-05-09T04:53:20.460Z,11.91
2023-05-09T04:55:49.773Z,12.00
2023-05-09T04:58:17.709Z,12.17
2023-05-09T05:00:45.629Z,12.06
2023-05-09T05:03:13.618Z,11.80
2023-05-09T05:05:41.724Z,11.96
2023-05-09T05:08:09.730Z,11.96
2023-05-09T05:10:37.668Z,12.11
2023-05-09T05:13:07.019Z,11.97
2023-05-09T05:15:34.963Z,11.98
2023-05-09T05:18:02.890Z,11.99
2023-05-09T05:20:30.975Z,12.22
2023-05-09T05:22:58.861Z,12.47
2023-05-09T05:25:26.933Z,12.20
2023-05-09T05:27:54.824Z,12.38
2023-05-09T05:30:24.198Z,12.61
2023-05-09T05:32:52.145Z,12.53
2023-05-09T05:35:22.528Z,12.48
2023-05-09T05:37:50.524Z,12.32
2023-05-09T05:40:18.508Z,12.44
2023-05-09T05:42:46.709Z,12.45
2023-05-09T05:45:14.986Z,12.62
2023-05-09T05:47:44.561Z,12.73
2023-05-09T05:50:13.083Z,12.66
2023-05-09T05:52:41.502Z,12.87
2023-05-09T05:55:10.045Z,12.39
2023-05-09T05:57:39.158Z,12.69
2023-05-09T06:00:10.809Z,13.03
2023-05-09T06:02:38.796Z,13.12
2023-05-09T06:05:09.411Z,13.11
2023-05-09T06:07:37.328Z,12.88
2023-05-09T06:10:05.872Z,12.96
2023-05-09T06:12:33.804Z,13.35
2023-05-09T06:15:01.749Z,13.48
2023-05-09T06:17:29.812Z,13.43
2023-05-09T06:19:57.759Z,13.47
2023-05-09T06:22:27.084Z,13.22
2023-05-09T06:24:54.997Z,13.32
2023-05-09T06:27:23.011Z,13.42
2023-05-09T06:29:52.713Z,13.38
2023-05-09T06:32:21.183Z,13.46
2023-05-09T06:34:49.120Z,14.04
2023-05-09T06:37:17.073Z,14.37
2023-05-09T06:39:46.375Z,14.52
2023-05-09T06:42:14.307Z,14.29
2023-05-09T06:44:43.785Z,13.95
2023-05-09T06:47:11.873Z,14.07
2023-05-09T06:49:39.820Z,14.63
2023-05-09T06:52:07.708Z,14.92
2023-05-09T06:54:35.612Z,14.89
2023-05-09T06:57:05.048Z,14.99
2023-05-09T06:59:33.068Z,15.22
2023-05-09T07:02:01.208Z,15.31
2023-05-09T07:04:29.211Z,15.15
2023-05-09T07:06:57.160Z,15.12
2023-05-09T07:09:28.002Z,15.59
2023-05-09T07:11:56.082Z,15.70
2023-05-09T07:14:25.350Z,15.92
2023-05-09T07:16:53.314Z,15.95
2023-05-09T07:19:21.262Z,15.48
2023-05-09T07:21:49.246Z,15.90
2023-05-09T07:24:17.198Z,15.93
2023-05-09T07:26:45.076Z,15.43
2023-05-09T07:29:12.968Z,15.67
2023-05-09T07:31:42.260Z,15.99
2023-05-09T07:34:10.200Z,16.14
2023-05-09T07:39:11.176Z,16.00
2023-05-09T07:41:39.104Z,16.21
2023-05-09T07:44:07.100Z,16.51
2023-05-09T07:46:35.056Z,16.39
2023-05-09T07:49:04.419Z,16.61
2023-05-09T07:51:32.354Z,16.52
2023-05-09T07:54:00.273Z,16.53
2023-05-09T07:56:28.196Z,16.73
2023-05-09T07:58:56.094Z,16.85
2023-05-09T08:01:24.079Z,16.85
2023-05-09T08:03:52.086Z,16.89
2023-05-09T08:06:21.520Z,16.73
2023-05-09T08:08:49.566Z,17.05
2023-05-09T08:11:17.504Z,17.29
2023-05-09T08:13:46.084Z,17.60
2023-05-09T08:16:14.091Z,17.59
2023-05-09T08:18:42.031Z,17.48
2023-05-09T08:21:09.980Z,17.48
2023-05-09T08:23:40.645Z,17.66
2023-05-09T08:26:08.621Z,17.71
2023-05-09T08:28:36.553Z,17.89
2023-05-09T08:31:04.592Z,18.07
2023-05-09T08:33:32.724Z,18.31
2023-05-09T08:36:00.639Z,18.43
2023-05-09T08:38:28.697Z,18.55
2023-05-09T08:41:02.999Z,18.43
2023-05-09T08:43:31.056Z,18.28
2023-05-09T08:46:00.488Z,18.59
2023-05-09T08:48:29.850Z,18.80
2023-05-09T08:50:58.052Z,18.95
2023-05-09T08:53:26.808Z,19.04
2023-05-09T08:55:54.878Z,19.11
2023-05-09T08:58:24.388Z,19.32
2023-05-09T09:00:52.491Z,19.51
2023-05-09T09:03:20.580Z,19.71
2023-05-09T09:05:49.284Z,19.70
2023-05-09T09:08:17.697Z,19.75
2023-05-09T09:10:47.514Z,19.81
2023-05-09T09:13:16.775Z,20.02
2023-05-09T09:15:47.388Z,20.06
2023-05-09T09:18:24.873Z,19.95
2023-05-09T09:20:57.960Z,20.10
2023-05-09T09:23:27.302Z,20.12
2023-05-09T09:26:00.332Z,20.50
2023-05-09T09:28:28.700Z,20.64
2023-05-09T09:30:58.148Z,20.66
2023-05-09T09:33:27.158Z,20.69
2023-05-09T09:35:56.448Z,21.03
2023-05-09T09:38:25.249Z,21.11
2023-05-09T09:40:56.747Z,21.09
2023-05-09T09:43:31.839Z,21.41
2023-05-09T09:46:04.020Z,21.43
2023-05-09T09:48:33.987Z,21.50
2023-05-09T09:51:05.409Z,21.27
2023-05-09T09:53:40.275Z,21.65
2023-05-09T09:56:08.586Z,21.82
2023-05-09T09:58:36.830Z,21.85
2023-05-09T10:01:10.355Z,21.89
2023-05-09T10:03:39.575Z,21.65
2023-05-09T10:06:11.342Z,21.74
2023-05-09T10:08:39.339Z,21.79
2023-05-09T10:11:07.459Z,22.26
2023-05-09T10:13:36.542Z,22.03
2023-05-09T10:16:05.596Z,22.05
2023-05-09T10:18:35.839Z,22.12
2023-05-09T10:21:05.307Z,22.51
2023-05-09T10:23:36.230Z,22.64
2023-05-09T10:26:08.391Z,21.99
2023-05-09T10:28:38.025Z,22.43
2023-05-09T10:31:09.206Z,22.44
2023-05-09T10:33:44.635Z,22.67
2023-05-09T10:36:13.414Z,22.98
2023-05-09T10:38:41.771Z,22.92
2023-05-09T10:41:10.348Z,23.33
2023-05-09T10:43:38.322Z,23.32
2023-05-09T10:46:06.987Z,23.30
2023-05-09T10:48:35.119Z,23.47
2023-05-09T10:51:05.226Z,23.18
2023-05-09T10:53:43.589Z,23.58
2023-05-09T10:56:23.823Z,23.74
2023-05-09T10:58:51.912Z,23.15
2023-05-09T11:01:30.560Z,23.48
2023-05-09T11:03:59.977Z,23.55
2023-05-09T11:06:48.959Z,23.24
2023-05-09T11:09:28.563Z,23.34
2023-05-09T11:11:58.114Z,23.54
2023-05-09T11:14:33.217Z,23.76
2023-05-09T11:17:04.637Z,23.76
2023-05-09T11:19:58.164Z,23.88
2023-05-09T11:22:28.852Z,24.04
2023-05-09T11:25:10.220Z,23.88
2023-05-09T11:27:42.468Z,24.24
2023-05-09T11:30:15.512Z,24.16
2023-05-09T11:32:46.674Z,24.25
2023-05-09T11:35:17.111Z,24.35
2023-05-09T11:37:51.131Z,24.44
2023-05-09T11:40:19.915Z,24.32
2023-05-09T11:42:50.051Z,23.87
2023-05-09T11:45:18.801Z,24.35
2023-05-09T11:47:47.277Z,23.92
2023-05-09T11:50:16.536Z,24.38
2023-05-09T11:52:45.274Z,24.37
2023-05-09T11:55:15.567Z,24.27
2023-05-09T11:57:45.696Z,23.91
2023-05-09T12:00:15.529Z,24.05
2023-05-09T12:02:45.452Z,24.04
2023-05-09T12:05:15.100Z,24.39
2023-05-09T12:07:43.724Z,24.50
2023-05-09T12:10:15.771Z,24.26
2023-05-09T12:12:45.153Z,24.52
2023-05-09T12:15:14.255Z,24.46
2023-05-09T12:17:43.510Z,24.59
2023-05-09T12:20:12.584Z,24.66
2023-05-09T12:22:43.549Z,24.63
2023-05-09T12:25:12.473Z,24.37
2023-05-09T12:27:42.661Z,24.38
2023-05-09T12:30:14.051Z,24.19
2023-05-09T12:32:42.900Z,24.64
2023-05-09T12:35:11.491Z,24.98
2023-05-09T12:37:39.807Z,24.84
2023-05-09T12:40:12.606Z,24.99
2023-05-09T12:42:46.078Z,25.18
2023-05-09T12:45:14.812Z,25.19
2023-05-09T12:47:43.178Z,25.06
2023-05-09T12:50:12.691Z,24.25
2023-05-09T12:52:54.669Z,24.17
2023-05-09T12:55:30.549Z,24.48
2023-05-09T12:58:01.521Z,24.84
2023-05-09T13:00:29.784Z,25.06
2023-05-09T13:02:57.922Z,25.24
2023-05-09T13:05:26.281Z,24.63
2023-05-09T13:07:58.128Z,25.40
2023-05-09T13:10:28.426Z,25.34
2023-05-09T13:12:56.530Z,25.55
2023-05-09T13:15:26.853Z,25.38
2023-05-09T13:17:55.511Z,24.85
2023-05-09T13:20:23.670Z,25.54
2023-05-09T13:22:51.572Z,24.76
2023-05-09T13:25:20.393Z,24.21
2023-05-09T13:27:48.305Z,24.84
2023-05-09T13:30:16.730Z,24.86
2023-05-09T13:32:47.556Z,23.62
2023-05-09T13:35:16.299Z,23.58
2023-05-09T13:37:44.321Z,23.72
2023-05-09T13:40:13.046Z,24.19
2023-05-09T13:42:41.248Z,24.26
2023-05-09T13:45:10.075Z,24.26
2023-05-09T13:47:38.686Z,25.07
2023-05-09T13:50:09.534Z,24.64
2023-05-09T13:52:37.460Z,25.15
2023-05-09T13:55:05.992Z,25.86
2023-05-09T13:57:33.925Z,25.76
2023-05-09T14:00:01.896Z,26.25
2023-05-09T14:02:29.834Z,26.37
2023-05-09T14:04:58.913Z,26.58
2023-05-09T14:07:28.329Z,26.51
2023-05-09T14:10:10.462Z,25.91
2023-05-09T14:12:40.715Z,25.18
2023-05-09T14:15:09.685Z,25.21
2023-05-09T14:17:37.905Z,24.65
2023-05-09T14:20:06.716Z,24.90
2023-05-09T14:22:36.219Z,24.56
2023-05-09T14:25:04.161Z,24.66
2023-05-09T14:27:32.070Z,24.21
2023-05-09T14:30:00.007Z,25.47
2023-05-09T14:32:27.893Z,25.47
2023-05-09T14:34:55.838Z,25.99
2023-05-09T14:37:23.823Z,25.62
2023-05-09T14:39:53.137Z,25.35
2023-05-09T14:42:21.526Z,26.03
2023-05-09T14:44:50.027Z,26.49
2023-05-09T14:47:17.994Z,26.00
2023-05-09T14:49:45.942Z,26.30
2023-05-09T14:52:13.829Z,26.52
2023-05-09T14:54:41.940Z,25.85
2023-05-09T14:57:11.696Z,26.03
2023-05-09T14:59:39.633Z,24.58
2023-05-09T15:02:08.138Z,24.40
2023-05-09T15:04:36.087Z,24.97
2023-05-09T15:07:06.090Z,25.34
2023-05-09T15:09:34.063Z,25.84
2023-05-09T15:12:02.034Z,26.09
2023-05-09T15:14:31.391Z,24.66
2023-05-09T15:17:02.835Z,25.05
2023-05-09T15:19:32.586Z,24.84
2023-05-09T15:22:00.961Z,24.54
2023-05-09T15:24:28.902Z,24.63
2023-05-09T15:26:56.910Z,24.67
2023-05-09T15:29:24.883Z,24.62
2023-05-09T15:31:55.514Z,24.59
2023-05-09T15:34:23.500Z,25.01
2023-05-09T15:36:51.428Z,25.11
2023-05-09T15:39:19.328Z,25.31
2023-05-09T15:41:47.222Z,25.67
2023-05-09T15:44:16.245Z,26.13
2023-05-09T15:46:44.303Z,25.82
2023-05-09T15:49:13.607Z,25.82
2023-05-09T15:51:42.270Z,26.48
2023-05-09T15:54:10.277Z,25.56
2023-05-09T15:56:38.190Z,25.25
2023-05-09T15:59:06.376Z,25.66
2023-05-09T16:01:35.405Z,26.17
2023-05-09T16:04:03.550Z,24.98
2023-05-09T16:06:33.690Z,25.23
2023-05-09T16:09:02.348Z,25.58
2023-05-09T16:11:30.251Z,25.39
2023-05-09T16:13:58.249Z,25.53
2023-05-09T16:16:26.296Z,25.37
2023-05-09T16:18:54.320Z,25.32
2023-05-09T16:21:22.881Z,25.61
2023-05-09T16:23:52.169Z,25.02
2023-05-09T16:26:20.127Z,25.13
2023-05-09T16:28:48.022Z,24.81
2023-05-09T16:31:15.925Z,24.73
2023-05-09T16:33:44.006Z,24.46
2023-05-09T16:36:11.888Z,23.93
2023-05-09T16:38:39.816Z,23.75
2023-05-09T16:41:09.092Z,24.15
2023-05-09T16:43:37.212Z,24.19
2023-05-09T16:46:05.869Z,23.62
2023-05-09T16:48:33.848Z,23.57
2023-05-09T16:51:01.746Z,23.84
2023-05-09T16:53:29.682Z,23.87
2023-05-09T16:55:57.741Z,23.81
2023-05-09T16:58:27.028Z,23.61
2023-05-09T17:00:55.385Z,23.63
2023-05-09T17:03:23.324Z,23.65
2023-05-09T17:05:51.280Z,23.41
2023-05-09T17:08:19.252Z,23.21
2023-05-09T17:10:47.128Z,23.21
2023-05-09T17:13:15.083Z,23.04
2023-05-09T17:15:45.139Z,23.01
2023-05-09T17:18:17.066Z,22.83
2023-05-09T17:20:47.372Z,22.83
2023-05-09T17:23:15.312Z,22.60
2023-05-09T17:25:43.531Z,22.63
2023-05-09T17:28:11.658Z,22.50
2023-05-09T17:30:40.510Z,22.36
2023-05-09T17:33:09.833Z,22.21
2023-05-09T17:35:38.100Z,22.03
2023-05-09T17:38:06.452Z,21.80
2023-05-09T17:40:34.354Z,21.91
2023-05-09T17:43:02.355Z,21.93
2023-05-09T17:45:30.245Z,21.23
2023-05-09T17:47:58.642Z,21.80
2023-05-09T17:50:27.990Z,21.41
2023-05-09T17:52:57.031Z,21.31
2023-05-09T17:55:25.059Z,21.49
2023-05-09T17:57:52.932Z,21.34
2023-05-09T18:00:21.117Z,21.22
2023-05-09T18:02:51.119Z,21.24
2023-05-09T18:05:19.296Z,21.14
2023-05-09T18:07:49.570Z,21.18
2023-05-09T18:10:17.680Z,20.75
2023-05-09T18:12:45.929Z,21.19
2023-05-09T18:15:14.056Z,21.27
2023-05-09T18:17:42.019Z,21.11
2023-05-09T18:20:10.650Z,21.14
2023-05-09T18:22:38.568Z,21.23
2023-05-09T18:25:08.734Z,20.72
2023-05-09T18:27:36.639Z,20.74
2023-05-09T18:30:04.988Z,20.59
2023-05-09T18:32:33.197Z,20.89
2023-05-09T18:35:01.172Z,20.65
2023-05-09T18:37:29.079Z,20.40
2023-05-09T18:39:57.185Z,20.16
2023-05-09T18:42:26.978Z,19.97
2023-05-09T18:44:56.925Z,20.18
2023-05-09T18:47:25.057Z,20.16
2023-05-09T18:49:52.946Z,20.33
2023-05-09T18:52:22.604Z,20.07
2023-05-09T18:54:50.555Z,19.90
2023-05-09T18:57:19.884Z,19.63
2023-05-09T18:59:51.818Z,20.05
2023-05-09T19:02:20.595Z,20.25
2023-05-09T19:04:50.421Z,20.11
2023-05-09T19:07:18.399Z,20.24
2023-05-09T19:09:46.299Z,19.85
2023-05-09T19:12:16.402Z,19.71
2023-05-09T19:14:44.563Z,19.70
2023-05-09T19:17:13.819Z,19.53
2023-05-09T19:19:42.088Z,19.35
2023-05-09T19:22:10.024Z,19.51
2023-05-09T19:24:37.918Z,19.31
2023-05-09T19:27:07.636Z,18.98
2023-05-09T19:29:35.967Z,19.04
2023-05-09T19:32:04.993Z,19.10
2023-05-09T19:34:34.431Z,19.26
2023-05-09T19:37:02.385Z,19.01
2023-05-09T19:39:30.590Z,19.20
2023-05-09T19:42:00.456Z,19.21
2023-05-09T19:44:28.758Z,19.19
2023-05-09T19:46:58.534Z,18.93
2023-05-09T19:49:26.882Z,18.93
2023-05-09T19:51:56.185Z,18.87
2023-05-09T19:54:26.486Z,18.86
2023-05-09T19:56:54.504Z,18.84
2023-05-09T19:59:22.605Z,18.96
2023-05-09T20:01:50.529Z,18.76
2023-05-09T20:04:21.715Z,18.66
2023-05-09T20:06:49.734Z,18.76
2023-05-09T20:09:21.013Z,18.79
2023-05-09T20:11:49.231Z,18.82
2023-05-09T20:14:17.423Z,18.72
2023-05-09T20:16:45.528Z,18.72
2023-05-09T20:19:15.081Z,18.69
2023-05-09T20:21:43.005Z,18.58
2023-05-09T20:24:11.836Z,18.58
2023-05-09T20:26:41.137Z,18.57
2023-05-09T20:29:09.056Z,18.56
2023-05-09T20:31:36.957Z,18.54
2023-05-09T20:34:04.946Z,18.52
2023-05-09T20:36:32.867Z,18.41
2023-05-09T20:39:00.842Z,18.41
2023-05-09T20:41:28.794Z,18.34
2023-05-09T20:44:03.532Z,18.34
2023-05-09T20:46:31.668Z,18.19
2023-05-09T20:48:59.576Z,18.17
2023-05-09T20:51:27.576Z,18.22
2023-05-09T20:53:55.472Z,18.11
2023-05-09T20:56:23.437Z,18.14
2023-05-09T20:58:51.368Z,18.12
2023-05-09T21:01:20.668Z,18.16
2023-05-09T21:03:48.840Z,17.92
2023-05-09T21:06:16.753Z,17.83
2023-05-09T21:08:44.697Z,17.91
2023-05-09T21:11:12.579Z,17.89
2023-05-09T21:13:40.542Z,17.87
2023-05-09T21:16:08.612Z,17.75
2023-05-09T21:18:38.125Z,17.70
2023-05-09T21:21:08.059Z,17.57
2023-05-09T21:23:35.967Z,17.77
2023-05-09T21:26:04.048Z,17.73
2023-05-09T21:28:32.764Z,17.84
2023-05-09T21:31:01.820Z,17.45
2023-05-09T21:33:30.003Z,17.55
2023-05-09T21:35:59.420Z,17.48
2023-05-09T21:38:27.297Z,17.39
2023-05-09T21:40:55.373Z,17.64
2023-05-09T21:43:23.292Z,17.63
2023-05-09T21:45:51.200Z,17.55
2023-05-09T21:48:19.128Z,17.32
2023-05-09T21:50:47.131Z,17.38
2023-05-09T21:53:16.384Z,17.37
2023-05-09T21:55:44.312Z,17.34
2023-05-09T21:58:12.176Z,17.40
2023-05-09T22:00:40.216Z,17.45
2023-05-09T22:03:08.556Z,17.40
2023-05-09T22:05:36.575Z,17.30
2023-05-09T22:08:04.632Z,17.37
2023-05-09T22:10:34.151Z,17.35
2023-05-09T22:13:02.271Z,17.23
2023-05-09T22:15:30.375Z,17.14
2023-05-09T22:17:58.350Z,17.25
2023-05-09T22:20:26.310Z,17.20
2023-05-09T22:22:54.241Z,17.26
2023-05-09T22:25:22.149Z,17.25
2023-05-09T22:27:51.446Z,17.27
2023-05-09T22:30:19.385Z,17.31
2023-05-09T22:32:47.298Z,17.28
2023-05-09T22:35:15.235Z,17.21
2023-05-09T22:37:43.151Z,17.30
2023-05-09T22:40:11.736Z,17.15
2023-05-09T22:42:39.634Z,17.25
2023-05-09T22:45:10.138Z,17.15
2023-05-09T22:47:38.264Z,17.20
2023-05-09T22:50:07.258Z,17.04
2023-05-09T22:52:35.185Z,16.97
2023-05-09T22:55:03.367Z,17.01
2023-05-09T22:57:31.823Z,16.96
2023-05-09T22:59:59.739Z,16.94
2023-05-09T23:02:29.060Z,16.86
2023-05-09T23:04:57.441Z,16.69
2023-05-09T23:07:25.437Z,16.78
2023-05-09T23:09:53.336Z,16.69
2023-05-09T23:12:21.248Z,16.83
2023-05-09T23:14:49.227Z,16.58
2023-05-09T23:17:17.244Z,16.81
2023-05-09T23:19:47.036Z,16.73
2023-05-09T23:22:14.937Z,16.61
2023-05-09T23:24:42.913Z,16.42
2023-05-09T23:27:10.800Z,16.56
2023-05-09T23:29:38.705Z,16.75
2023-05-09T23:32:06.645Z,16.85
2023-05-09T23:34:36.232Z,16.99
2023-05-09T23:37:05.687Z,17.09
2023-05-09T23:39:33.688Z,16.83
2023-05-09T23:42:01.602Z,16.56
2023-05-09T23:44:30.141Z,16.68
2023-05-09T23:46:58.271Z,16.63
2023-05-09T23:49:26.259Z,16.66
2023-05-09T23:51:54.156Z,16.69
2023-05-09T23:54:24.468Z,16.62
2023-05-09T23:56:52.411Z,16.61
2023-05-09T23:59:20.292Z,16.56
